Time;durP1;ratioP1;P1;durP2;ratioP2;P2;SDS_P1;SDS_P2;PMS_P1;PMS_P2;Temp;Humidity;BMP_temperature;BMP_pressure;BME280_temperature;BME280_humidity;BME280_pressure;Samples;Min_cycle;Max_cycle;Signal;HPM_P1;HPM_P2
2022/01/25 00:08:38;;;;;;;;;;;;;;;26.16;27.22;98887.13;172540;28;676;-48
2022/01/25 00:09:10;;;;;;;;;;;;;;;26.22;27.11;98893.81;172514;28;853;-49
2022/01/25 00:10:15;;;;;;;;;;;;;;;26.25;27.24;98885.72;171534;28;1694;-49
2022/01/25 00:24:33;;;;;;;;;;;;;;;26.16;27.26;98876.53;171787;28;916;-48
2022/01/25 00:25:10;;;;;;;;;;;;;;;26.20;27.46;98868.41;171774;28;1122;-48
2022/01/25 00:25:57;;;;;;;;;;;;;;;26.20;27.43;98873.69;171717;28;916;-48
2022/01/25 00:26:20;;;;;;;;;;;;;;;26.27;27.32;98875.03;170888;28;4282;-48
2022/01/25 00:26:33;;;;;;;;;;;;;;;26.24;27.36;98876.06;170833;28;1086;-48
2022/01/25 00:26:46;;;;;;;;;;;;;;;26.29;27.34;98881.06;170992;28;1117;-48
2022/01/25 00:27:11;;;;;;;;;;;;;;;26.28;27.25;98864.34;171717;28;966;-46
2022/01/25 00:27:50;;;;;;;;;;;;;;;26.31;27.20;98865.97;171646;28;1153;-47
2022/01/25 00:28:16;;;;;;;;;;;;;;;26.30;27.25;98862.47;170995;28;1177;-48
2022/01/25 00:29:03;;;;;;;;;;;;;;;26.26;27.12;98870.69;171901;28;1147;-47
2022/01/25 00:29:13;;;;;;;;;;;;;;;26.31;27.26;98858.91;171721;28;955;-48
2022/01/25 00:29:29;;;;;;;;;;;;;;;26.32;27.10;98865.88;171743;28;1121;-48
2022/01/25 00:30:28;;;;;;;;;;;;;;;26.27;27.28;98867.09;170960;28;4348;-48
2022/01/25 00:30:29;;;;;;;;;;;;;;;26.30;27.03;98865.09;171779;28;739;-47
2022/01/25 00:30:45;;;;;;;;;;;;;;;26.33;27.20;98864.09;172211;28;1716;-47
2022/01/25 00:31:13;;;;;;;;;;;;;;;26.30;27.52;98862.47;172459;28;725;-48
2022/01/25 00:31:18;;;;;;;;;;;;;;;26.34;27.22;98861.34;171297;28;1574;-48
2022/01/25 00:31:24;;;;;;;;;;;;;;;26.34;27.28;98857.84;172998;28;886;-47
2022/01/25 00:31:29;;;;;;;;;;;;;;;26.36;26.95;98863.88;173162;28;904;-48
2022/01/25 00:31:35;;;;;;;;;;;;;;;26.36;27.08;98866.53;173290;28;814;-49
2022/01/25 00:31:41;;;;;;;;;;;;;;;26.36;27.00;98862.09;172436;28;913;-48
2022/01/25 00:31:46;;;;;;;;;;;;;;;26.37;27.18;98861.13;171816;28;861;-48
2022/01/25 00:31:51;;;;;;;;;;;;;;;26.36;26.94;98866.53;172407;28;1147;-48
2022/01/25 00:31:56;;;;;;;;;;;;;;;26.37;27.00;98858.50;171759;28;918;-48
2022/01/25 00:32:02;;;;;;;;;;;;;;;26.37;26.81;98863.78;171407;28;1115;-48
2022/01/25 00:32:07;;;;;;;;;;;;;;;26.36;26.95;98861.25;171660;28;884;-48
2022/01/25 00:32:13;;;;;;;;;;;;;;;26.34;26.88;98864.00;171692;28;1158;-49
2022/01/25 00:32:18;;;;;;;;;;;;;;;26.34;27.14;98861.34;171105;28;861;-49
2022/01/25 00:32:23;;;;;;;;;;;;;;;26.36;26.96;98864.72;171108;28;1189;-49
2022/01/25 00:32:29;;;;;;;;;;;;;;;26.35;27.10;98862.19;171089;28;771;-48
2022/01/25 00:32:34;;;;;;;;;;;;;;;26.37;27.06;98861.13;170472;29;890;-48
2022/01/25 00:32:39;;;;;;;;;;;;;;;26.37;26.88;98861.13;169677;29;1083;-47
2022/01/25 00:32:44;;;;;;;;;;;;;;;26.37;27.18;98870.88;169826;29;854;-48
2022/01/25 00:32:50;;;;;;;;;;;;;;;26.39;26.88;98861.09;169863;29;1143;-48
2022/01/25 00:32:55;;;;;;;;;;;;;;;26.40;26.86;98863.66;169633;29;1298;-48
2022/01/25 00:33:01;;;;;;;;;;;;;;;26.38;26.93;98865.50;170705;28;1277;-50
2022/01/25 00:33:06;;;;;;;;;;;;;;;26.38;27.20;98864.63;171197;28;971;-49
2022/01/25 00:33:11;;;;;;;;;;;;;;;26.39;27.19;98863.75;170989;28;1134;-47
2022/01/25 00:33:16;;;;;;;;;;;;;;;26.39;26.91;98861.09;171172;28;948;-48
2022/01/25 00:33:21;;;;;;;;;;;;;;;26.38;27.11;98865.50;171103;28;980;-48
2022/01/25 00:33:27;;;;;;;;;;;;;;;26.40;26.70;98865.44;170436;28;1551;-47
2022/01/25 00:33:32;;;;;;;;;;;;;;;26.39;26.85;98861.97;170021;28;1577;-48
2022/01/25 00:33:38;;;;;;;;;;;;;;;26.42;27.04;98867.03;171077;28;1039;-48
2022/01/25 00:33:45;;;;;;;;;;;;;;;26.44;26.67;98864.28;170258;28;4269;-48
2022/01/25 00:33:54;;;;;;;;;;;;;;;26.43;26.85;98865.25;171779;28;881;-48
2022/01/25 00:33:59;;;;;;;;;;;;;;;26.38;26.92;98860.22;171602;28;944;-46
2022/01/25 00:34:05;;;;;;;;;;;;;;;26.29;27.17;98859.91;171581;28;1950;-48
2022/01/25 00:34:10;;;;;;;;;;;;;;;26.29;27.25;98873.97;171960;28;1244;-48
2022/01/25 00:34:15;;;;;;;;;;;;;;;26.33;27.13;98861.44;171824;28;845;-48
2022/01/25 00:34:20;;;;;;;;;;;;;;;26.38;26.92;98862.00;171732;28;1028;-48
2022/01/25 00:34:25;;;;;;;;;;;;;;;26.39;27.15;98859.31;171724;28;929;-50
2022/01/25 00:34:31;;;;;;;;;;;;;;;26.40;27.13;98858.34;170691;28;870;-48
2022/01/25 00:34:36;;;;;;;;;;;;;;;26.42;26.98;98872.34;170491;29;1155;-47
2022/01/25 00:34:41;;;;;;;;;;;;;;;26.41;26.95;98861.84;170399;29;1016;-47
2022/01/25 00:34:46;;;;;;;;;;;;;;;26.42;26.95;98866.19;170449;29;1084;-48
2022/01/25 00:34:51;;;;;;;;;;;;;;;26.42;27.10;98866.19;170756;28;795;-49
2022/01/25 00:34:57;;;;;;;;;;;;;;;26.40;26.78;98858.34;171203;28;1192;-48
2022/01/25 00:35:02;;;;;;;;;;;;;;;26.39;26.82;98859.31;170822;28;1122;-46
2022/01/25 00:35:07;;;;;;;;;;;;;;;26.40;26.86;98863.66;171060;28;964;-48
2022/01/25 00:35:12;;;;;;;;;;;;;;;26.42;27.01;98868.84;170330;29;779;-49
2022/01/25 00:35:17;;;;;;;;;;;;;;;26.41;26.73;98865.34;170567;28;929;-49
2022/01/25 00:35:23;;;;;;;;;;;;;;;26.42;26.98;98856.47;170952;28;1193;-47
2022/01/25 00:35:28;;;;;;;;;;;;;;;26.41;26.81;98865.34;171038;28;786;-47
2022/01/25 00:35:33;;;;;;;;;;;;;;;26.41;27.11;98869.78;171089;28;1158;-47
2022/01/25 00:35:38;;;;;;;;;;;;;;;26.42;27.03;98864.41;171044;28;1039;-48
2022/01/25 00:35:44;;;;;;;;;;;;;;;26.45;26.85;98860.69;171161;28;1130;-49
2022/01/25 00:35:49;;;;;;;;;;;;;;;26.46;27.09;98861.56;171794;28;957;-46
2022/01/25 00:35:54;;;;;;;;;;;;;;;26.46;26.70;98861.56;171155;28;878;-48
2022/01/25 00:35:59;;;;;;;;;;;;;;;26.37;27.02;98863.78;170206;28;1163;-49
2022/01/25 00:36:05;;;;;;;;;;;;;;;26.37;27.13;98865.59;170373;29;1048;-48
2022/01/25 00:36:11;;;;;;;;;;;;;;;26.38;26.80;98862.88;168973;29;1194;-48
2022/01/25 00:36:17;;;;;;;;;;;;;;;26.42;27.07;98868.84;169690;29;1171;-47
2022/01/25 00:36:24;;;;;;;;;;;;;;;26.43;27.07;98866.09;170407;29;1167;-49
2022/01/25 00:36:29;;;;;;;;;;;;;;;26.45;27.02;98860.69;170457;29;901;-47
2022/01/25 00:36:34;;;;;;;;;;;;;;;26.48;26.76;98867.63;170450;29;1258;-47
2022/01/25 00:36:39;;;;;;;;;;;;;;;26.46;26.76;98862.41;170434;29;886;-48
2022/01/25 00:36:44;;;;;;;;;;;;;;;26.44;26.79;98857.22;170435;29;1056;-48
2022/01/25 00:36:50;;;;;;;;;;;;;;;26.44;26.83;98870.44;170519;29;518;-48
2022/01/25 00:36:55;;;;;;;;;;;;;;;26.45;26.92;98866.00;170604;28;1167;-48
2022/01/25 00:37:00;;;;;;;;;;;;;;;26.43;27.05;98865.25;170841;28;1126;-47
2022/01/25 00:37:05;;;;;;;;;;;;;;;26.46;26.85;98867.69;170520;29;1171;-49
2022/01/25 00:37:11;;;;;;;;;;;;;;;26.47;27.00;98858.00;170287;29;922;-48
2022/01/25 00:37:16;;;;;;;;;;;;;;;26.45;26.64;98863.34;171298;28;794;-47
2022/01/25 00:37:22;;;;;;;;;;;;;;;26.45;26.75;98868.63;171091;28;1004;-47
2022/01/25 00:37:27;;;;;;;;;;;;;;;26.46;26.91;98867.69;170385;29;781;-48
2022/01/25 00:37:32;;;;;;;;;;;;;;;26.46;26.89;98862.41;169110;29;1456;-48
2022/01/25 00:37:37;;;;;;;;;;;;;;;26.48;26.77;98865.81;169168;29;882;-48
2022/01/25 00:37:43;;;;;;;;;;;;;;;26.48;27.09;98862.34;168989;29;1038;-48
2022/01/25 00:37:48;;;;;;;;;;;;;;;26.41;27.12;98857.41;168756;29;4178;-48
2022/01/25 00:37:53;;;;;;;;;;;;;;;26.48;27.12;98871.13;169170;29;1140;-49
2022/01/25 00:37:58;;;;;;;;;;;;;;;26.48;26.89;98871.13;169726;29;819;-47
2022/01/25 00:38:04;;;;;;;;;;;;;;;26.48;26.67;98868.47;169071;29;1206;-48
2022/01/25 00:38:09;;;;;;;;;;;;;;;26.49;26.66;98861.38;169087;29;855;-48
2022/01/25 00:38:14;;;;;;;;;;;;;;;26.47;26.98;98858.84;169079;29;958;-48
2022/01/25 00:38:19;;;;;;;;;;;;;;;26.46;26.99;98866.84;170446;29;1238;-48
2022/01/25 00:38:24;;;;;;;;;;;;;;;26.44;26.88;98857.22;170390;29;846;-48
2022/01/25 00:38:30;;;;;;;;;;;;;;;26.46;26.83;98866.84;170435;29;1000;-48
2022/01/25 00:38:35;;;;;;;;;;;;;;;26.47;27.02;98863.28;170443;29;926;-47
2022/01/25 00:38:40;;;;;;;;;;;;;;;26.46;26.68;98866.84;170294;28;1173;-47
2022/01/25 00:38:45;;;;;;;;;;;;;;;26.48;26.66;98865.81;169897;29;881;-48
2022/01/25 00:38:51;;;;;;;;;;;;;;;26.48;27.03;98857.03;169863;29;886;-49
2022/01/25 00:38:56;;;;;;;;;;;;;;;26.49;27.02;98866.66;170319;29;1202;-48
2022/01/25 00:39:03;;;;;;;;;;;;;;;26.49;26.89;98862.22;170056;29;1110;-48
2022/01/25 00:39:08;;;;;;;;;;;;;;;26.50;26.95;98860.44;169676;29;1171;-48
2022/01/25 00:39:13;;;;;;;;;;;;;;;26.51;27.03;98868.28;170422;29;806;-48
2022/01/25 00:39:18;;;;;;;;;;;;;;;26.51;26.73;98864.78;170350;29;1182;-49
2022/01/25 00:39:23;;;;;;;;;;;;;;;26.49;27.12;98862.22;170578;29;819;-48
2022/01/25 00:39:29;;;;;;;;;;;;;;;26.51;26.97;98868.28;170375;28;1103;-48
2022/01/25 00:39:37;;;;;;;;;;;;;;;26.48;26.78;98865.81;171157;28;906;-47
2022/01/25 00:39:43;;;;;;;;;;;;;;;26.51;26.87;98864.78;171047;28;1222;-48
2022/01/25 00:39:48;;;;;;;;;;;;;;;26.50;26.91;98865.72;171216;28;779;-47
2022/01/25 00:39:53;;;;;;;;;;;;;;;26.51;27.03;98860.34;171655;28;1214;-47
2022/01/25 00:39:58;;;;;;;;;;;;;;;26.52;26.70;98866.47;171515;28;1147;-47
2022/01/25 00:40:04;;;;;;;;;;;;;;;26.51;26.81;98860.34;168792;28;1642;-48
2022/01/25 00:40:10;;;;;;;;;;;;;;;26.51;26.69;98862.13;169495;29;869;-48
2022/01/25 00:40:15;;;;;;;;;;;;;;;26.52;26.68;98858.53;170728;28;1112;-48
2022/01/25 00:40:20;;;;;;;;;;;;;;;26.51;26.96;98867.41;171113;28;898;-48
2022/01/25 00:40:25;;;;;;;;;;;;;;;26.46;26.73;98862.41;170565;28;1410;-47
2022/01/25 00:40:30;;;;;;;;;;;;;;;26.49;26.72;98861.38;170646;28;1826;-48
2022/01/25 00:40:36;;;;;;;;;;;;;;;26.50;26.92;98865.72;171193;28;763;-48
2022/01/25 00:40:41;;;;;;;;;;;;;;;26.50;26.58;98856.00;171024;28;1201;-48
2022/01/25 00:40:46;;;;;;;;;;;;;;;26.52;27.02;98869.13;171268;28;909;-49
2022/01/25 00:40:51;;;;;;;;;;;;;;;26.47;26.91;98860.63;171134;28;1245;-48
2022/01/25 00:40:56;;;;;;;;;;;;;;;26.49;26.77;98864.88;171099;28;770;-48
2022/01/25 00:41:02;;;;;;;;;;;;;;;26.50;26.97;98863.94;170890;28;1126;-46
2022/01/25 00:41:07;;;;;;;;;;;;;;;26.51;27.01;98859.47;171160;28;731;-48
2022/01/25 00:41:12;;;;;;;;;;;;;;;26.49;26.70;98859.59;170973;28;1907;-48
2022/01/25 00:41:18;;;;;;;;;;;;;;;26.49;26.75;98861.38;171732;28;948;-48
2022/01/25 00:41:23;;;;;;;;;;;;;;;26.48;26.67;98859.69;171100;28;956;-48
2022/01/25 00:41:28;;;;;;;;;;;;;;;26.50;27.02;98865.72;169751;29;1116;-47
2022/01/25 00:41:33;;;;;;;;;;;;;;;26.49;26.71;98862.22;169868;29;874;-48
2022/01/25 00:41:39;;;;;;;;;;;;;;;26.52;27.08;98858.53;169755;29;1247;-48
2022/01/25 00:41:44;;;;;;;;;;;;;;;26.51;26.92;98864.78;169385;29;4229;-49
2022/01/25 00:41:49;;;;;;;;;;;;;;;26.52;26.87;98861.19;169984;29;1222;-47
2022/01/25 00:41:54;;;;;;;;;;;;;;;26.51;26.68;98868.28;169834;29;979;-48
2022/01/25 00:42:00;;;;;;;;;;;;;;;26.48;26.96;98863.19;169561;29;1079;-47
2022/01/25 00:42:05;;;;;;;;;;;;;;;26.47;26.66;98860.63;171177;28;914;-47
2022/01/25 00:42:10;;;;;;;;;;;;;;;26.46;27.05;98862.41;171068;28;821;-47
2022/01/25 00:42:16;;;;;;;;;;;;;;;26.49;26.75;98867.53;171799;28;1248;-48
2022/01/25 00:42:21;;;;;;;;;;;;;;;26.51;26.92;98859.47;171243;28;790;-48
2022/01/25 00:42:26;;;;;;;;;;;;;;;26.51;26.85;98864.78;171088;28;1056;-49
2022/01/25 00:42:31;;;;;;;;;;;;;;;26.50;26.95;98865.72;170559;29;926;-48
2022/01/25 00:42:36;;;;;;;;;;;;;;;26.52;26.75;98867.31;170742;28;1190;-48
2022/01/25 00:42:42;;;;;;;;;;;;;;;26.51;27.02;98862.13;171048;28;767;-48
2022/01/25 00:42:47;;;;;;;;;;;;;;;26.51;26.97;98862.13;171174;28;952;-47
2022/01/25 00:42:52;;;;;;;;;;;;;;;26.51;26.88;98865.63;171230;28;890;-47
2022/01/25 00:42:57;;;;;;;;;;;;;;;26.51;26.66;98854.19;169896;28;1440;-47
2022/01/25 00:43:03;;;;;;;;;;;;;;;26.50;26.70;98860.44;169800;28;996;-47
2022/01/25 00:43:08;;;;;;;;;;;;;;;26.49;26.90;98861.38;169799;29;791;-47
2022/01/25 00:43:15;;;;;;;;;;;;;;;26.51;26.66;98864.78;171173;28;1150;-48
2022/01/25 00:43:22;;;;;;;;;;;;;;;26.48;26.67;98863.19;171302;28;788;-48
2022/01/25 00:43:28;;;;;;;;;;;;;;;26.46;26.94;98864.19;171590;28;913;-47
2022/01/25 00:43:33;;;;;;;;;;;;;;;26.46;26.98;98865.03;171919;28;791;-48
2022/01/25 00:43:38;;;;;;;;;;;;;;;26.48;26.69;98865.81;172074;28;1394;-47
2022/01/25 00:43:43;;;;;;;;;;;;;;;26.50;26.96;98863.94;172195;28;849;-48
2022/01/25 00:43:49;;;;;;;;;;;;;;;26.51;26.70;98868.28;172238;28;1169;-48
2022/01/25 00:43:54;;;;;;;;;;;;;;;26.50;26.71;98863.06;172404;28;909;-48
2022/01/25 00:44:01;;;;;;;;;;;;;;;26.52;26.92;98861.19;171288;28;1173;-47
2022/01/25 00:44:06;;;;;;;;;;;;;;;26.51;26.91;98867.41;169804;29;835;-48
2022/01/25 00:44:12;;;;;;;;;;;;;;;26.51;26.84;98864.78;171438;28;968;-48
2022/01/25 00:44:18;;;;;;;;;;;;;;;26.50;26.83;98858.63;171539;28;759;-47
2022/01/25 00:44:24;;;;;;;;;;;;;;;26.50;26.78;98868.38;170843;28;1147;-47
2022/01/25 00:44:35;;;;;;;;;;;;;;;26.49;26.89;98864.03;170898;28;818;-47
2022/01/25 00:44:45;;;;;;;;;;;;;;;26.50;26.78;98863.06;170219;29;933;-46
2022/01/25 00:44:50;;;;;;;;;;;;;;;26.48;26.67;98863.19;170490;29;1006;-47
2022/01/25 00:44:55;;;;;;;;;;;;;;;26.48;27.05;98859.69;170368;29;866;-47
2022/01/25 00:45:01;;;;;;;;;;;;;;;26.48;26.77;98860.53;170779;28;1195;-48
2022/01/25 00:45:08;;;;;;;;;;;;;;;26.49;26.90;98864.88;170512;29;874;-46
2022/01/25 00:45:15;;;;;;;;;;;;;;;26.50;26.98;98866.56;170571;29;866;-47
2022/01/25 00:45:22;;;;;;;;;;;;;;;26.50;26.84;98868.38;170341;29;1372;-47
2022/01/25 00:45:29;;;;;;;;;;;;;;;26.49;26.69;98858.75;170511;29;814;-48
2022/01/25 00:45:34;;;;;;;;;;;;;;;26.49;26.99;98861.38;169802;29;1139;-48
2022/01/25 00:45:39;;;;;;;;;;;;;;;26.50;26.96;98863.06;169864;29;838;-47
2022/01/25 00:45:44;;;;;;;;;;;;;;;26.48;26.65;98860.53;169192;29;4261;-48
2022/01/25 00:45:52;;;;;;;;;;;;;;;26.47;26.86;98863.28;170514;29;875;-48
2022/01/25 00:46:01;;;;;;;;;;;;;;;26.43;26.77;98863.44;170767;28;1160;-48
2022/01/25 00:46:09;;;;;;;;;;;;;;;26.41;26.94;98861.84;170476;29;921;-48
2022/01/25 00:46:15;;;;;;;;;;;;;;;26.42;26.74;98867.03;171249;28;854;-48
2022/01/25 00:46:21;;;;;;;;;;;;;;;26.43;26.98;98866.09;171768;28;983;-48
2022/01/25 00:46:27;;;;;;;;;;;;;;;26.46;26.72;98865.03;171749;28;893;-49
2022/01/25 00:46:32;;;;;;;;;;;;;;;26.47;26.86;98858.00;171739;28;1031;-48
2022/01/25 00:46:37;;;;;;;;;;;;;;;26.47;26.80;98864.13;171864;28;818;-49
2022/01/25 00:46:42;;;;;;;;;;;;;;;26.41;26.88;98869.78;171586;28;1111;-49
2022/01/25 00:46:47;;;;;;;;;;;;;;;26.43;26.85;98860.81;171878;28;738;-48
2022/01/25 00:46:53;;;;;;;;;;;;;;;26.42;26.72;98861.75;171986;28;904;-47
2022/01/25 00:46:58;;;;;;;;;;;;;;;26.41;26.95;98860.06;172365;28;1145;-47
2022/01/25 00:47:05;;;;;;;;;;;;;;;26.48;26.90;98862.34;172448;28;1137;-48
2022/01/25 00:47:10;;;;;;;;;;;;;;;26.49;26.64;98861.38;172324;28;1279;-48
2022/01/25 00:47:16;;;;;;;;;;;;;;;26.50;26.94;98863.06;171874;28;1088;-48
2022/01/25 00:47:24;;;;;;;;;;;;;;;26.51;26.69;98857.69;172373;28;995;-48
2022/01/25 00:47:30;;;;;;;;;;;;;;;26.50;26.73;98861.28;172137;28;983;-48
2022/01/25 00:47:35;;;;;;;;;;;;;;;26.52;26.87;98861.19;172536;28;862;-48
2022/01/25 00:47:41;;;;;;;;;;;;;;;26.51;26.68;98857.69;172290;28;798;-48
2022/01/25 00:47:49;;;;;;;;;;;;;;;26.52;26.87;98858.53;171658;28;751;-47
2022/01/25 00:47:55;;;;;;;;;;;;;;;26.53;26.63;98855.78;171787;28;1200;-47
2022/01/25 00:48:03;;;;;;;;;;;;;;;26.52;26.84;98862.03;172237;28;1140;-47
2022/01/25 00:48:17;;;;;;;;;;;;;;;26.51;26.79;98859.47;170999;28;1525;-48
2022/01/25 00:48:45;;;;;;;;;;;;;;;26.49;26.72;98864.88;170948;28;1417;-48
2022/01/25 00:48:54;;;;;;;;;;;;;;;26.48;26.72;98859.69;171581;28;846;-48
2022/01/25 00:49:02;;;;;;;;;;;;;;;26.49;27.05;98861.38;171186;28;930;-49
2022/01/25 00:49:08;;;;;;;;;;;;;;;26.50;26.99;98857.78;172678;28;1114;-49
2022/01/25 00:49:26;;;;;;;;;;;;;;;26.48;26.73;98854.41;173167;28;857;-48
2022/01/25 00:49:35;;;;;;;;;;;;;;;26.47;26.64;98860.63;173137;28;1105;-48
2022/01/25 00:49:41;;;;;;;;;;;;;;;26.47;27.00;98858.84;172997;28;970;-48
2022/01/25 00:49:51;;;;;;;;;;;;;;;26.49;26.69;98861.38;172591;28;4219;-48
2022/01/25 00:49:56;;;;;;;;;;;;;;;26.43;26.68;98866.09;172468;28;834;-48
2022/01/25 00:50:02;;;;;;;;;;;;;;;26.46;27.08;98862.41;172669;28;1051;-49
2022/01/25 00:50:13;;;;;;;;;;;;;;;26.46;26.93;98853.63;172408;28;928;-47
2022/01/25 00:50:19;;;;;;;;;;;;;;;26.48;27.02;98857.88;173145;28;960;-48
2022/01/25 00:50:31;;;;;;;;;;;;;;;26.49;26.71;98861.38;173163;28;901;-48
2022/01/25 00:50:40;;;;;;;;;;;;;;;26.44;27.01;98862.50;173277;28;845;-49
2022/01/25 00:50:45;;;;;;;;;;;;;;;26.36;27.18;98856.81;172447;28;881;-48
2022/01/25 00:50:51;;;;;;;;;;;;;;;26.40;26.92;98858.34;171647;28;1506;-47
2022/01/25 00:51:14;;;;;;;;;;;;;;;26.44;27.15;98865.16;172093;28;1692;-48
2022/01/25 00:52:04;;;;;;;;;;;;;;;26.45;26.64;98858.06;171552;28;1126;-48
2022/01/25 00:54:03;;;;;;;;;;;;;;;26.37;27.19;98855.00;171905;28;4214;-48
2022/01/25 00:54:14;;;;;;;;;;;;;;;26.36;26.84;98855.94;171751;28;858;-47
2022/01/25 00:54:32;;;;;;;;;;;;;;;26.35;27.06;98852.47;172530;28;888;-47
2022/01/25 00:54:40;;;;;;;;;;;;;;;26.36;27.12;98854.16;173033;28;1237;-49
2022/01/25 00:54:46;;;;;;;;;;;;;;;26.35;27.08;98849.81;172976;28;1191;-46
2022/01/25 00:54:53;;;;;;;;;;;;;;;26.35;26.70;98849.81;172358;28;865;-48
2022/01/25 00:54:59;;;;;;;;;;;;;;;26.35;27.17;98852.47;172101;28;1070;-48
2022/01/25 00:55:04;;;;;;;;;;;;;;;26.23;27.26;98850.59;171565;28;1172;-47
2022/01/25 00:55:10;;;;;;;;;;;;;;;26.22;27.07;98859.44;171881;28;1185;-48
2022/01/25 00:55:15;;;;;;;;;;;;;;;26.28;27.32;98855.56;172640;28;881;-47
2022/01/25 00:55:20;;;;;;;;;;;;;;;26.31;27.03;98847.47;172307;28;1387;-48
2022/01/25 00:55:25;;;;;;;;;;;;;;;26.32;26.92;98847.38;172484;28;878;-49
2022/01/25 00:55:31;;;;;;;;;;;;;;;26.34;27.10;98852.56;172591;28;805;-48
2022/01/25 00:55:36;;;;;;;;;;;;;;;26.32;26.75;98850.00;172405;28;1334;-49
2022/01/25 00:55:41;;;;;;;;;;;;;;;26.32;27.18;98854.47;172433;28;802;-48
2022/01/25 00:55:46;;;;;;;;;;;;;;;26.28;27.06;98848.47;172490;28;1154;-47
2022/01/25 00:55:52;;;;;;;;;;;;;;;26.31;27.17;98853.59;172441;28;889;-48
2022/01/25 00:55:57;;;;;;;;;;;;;;;26.32;27.19;98852.66;172302;28;1121;-48
2022/01/25 00:56:02;;;;;;;;;;;;;;;26.33;27.17;98851.72;171632;28;1121;-49
2022/01/25 00:56:07;;;;;;;;;;;;;;;26.35;27.21;98849.81;171480;28;1264;-48
2022/01/25 00:56:12;;;;;;;;;;;;;;;26.36;26.97;98851.50;171622;28;1137;-48
2022/01/25 00:56:18;;;;;;;;;;;;;;;26.36;26.99;98856.81;171634;28;1011;-48
2022/01/25 00:56:23;;;;;;;;;;;;;;;26.35;27.08;98856.91;171503;28;1268;-47
2022/01/25 00:56:32;;;;;;;;;;;;;;;26.37;27.14;98847.91;170778;28;1154;-48
2022/01/25 00:56:38;;;;;;;;;;;;;;;26.39;27.00;98851.38;170728;28;1158;-46
2022/01/25 00:56:44;;;;;;;;;;;;;;;26.40;26.87;98849.56;170698;28;1059;-46
2022/01/25 00:56:50;;;;;;;;;;;;;;;26.38;27.11;98857.59;171600;28;925;-48
2022/01/25 00:56:55;;;;;;;;;;;;;;;26.39;27.08;98855.81;171503;28;1157;-47
2022/01/25 00:57:00;;;;;;;;;;;;;;;26.41;27.03;98849.47;169773;28;1992;-48
2022/01/25 00:57:06;;;;;;;;;;;;;;;26.42;26.92;98850.31;170031;28;1535;-48
2022/01/25 00:57:12;;;;;;;;;;;;;;;26.40;26.95;98849.56;170266;29;819;-47
2022/01/25 00:57:17;;;;;;;;;;;;;;;26.40;27.01;98853.06;170563;29;849;-49
2022/01/25 00:57:22;;;;;;;;;;;;;;;26.41;27.04;98852.13;170372;28;1169;-48
2022/01/25 00:57:27;;;;;;;;;;;;;;;26.42;26.84;98848.53;170461;29;946;-48
2022/01/25 00:57:32;;;;;;;;;;;;;;;26.38;27.05;98852.28;171093;28;1178;-48
2022/01/25 00:57:38;;;;;;;;;;;;;;;26.39;26.94;98846.09;170964;28;1237;-48
2022/01/25 00:57:43;;;;;;;;;;;;;;;26.41;26.74;98844.19;170980;28;1071;-46
2022/01/25 00:57:48;;;;;;;;;;;;;;;26.43;26.98;98846.72;170756;28;4071;-48
2022/01/25 00:57:53;;;;;;;;;;;;;;;26.43;26.77;98850.22;171003;28;1097;-48
2022/01/25 00:57:59;;;;;;;;;;;;;;;26.42;27.01;98851.16;171186;28;794;-48
2022/01/25 00:58:04;;;;;;;;;;;;;;;26.46;26.89;98846.53;170562;28;862;-48
2022/01/25 00:58:10;;;;;;;;;;;;;;;26.44;26.98;98846.63;170413;28;1355;-48
2022/01/25 00:58:16;;;;;;;;;;;;;;;26.47;26.84;98850.06;170588;29;834;-49
2022/01/25 00:58:21;;;;;;;;;;;;;;;26.49;26.61;98853.44;171800;28;1197;-48
2022/01/25 00:58:26;;;;;;;;;;;;;;;26.49;26.71;98849.00;171780;28;838;-48
2022/01/25 00:58:31;;;;;;;;;;;;;;;26.50;26.90;98847.19;171767;28;1084;-47
2022/01/25 00:58:37;;;;;;;;;;;;;;;26.50;26.62;98849.84;172356;28;818;-48
2022/01/25 00:58:42;;;;;;;;;;;;;;;26.47;26.71;98844.75;172082;28;1121;-47
2022/01/25 00:58:47;;;;;;;;;;;;;;;26.49;27.00;98842.88;171822;28;886;-48
2022/01/25 00:58:52;;;;;;;;;;;;;;;26.48;26.91;98849.09;171763;28;1126;-48
2022/01/25 00:58:58;;;;;;;;;;;;;;;26.48;26.59;98847.31;171745;28;1272;-48
2022/01/25 00:59:04;;;;;;;;;;;;;;;26.46;26.83;98851.81;171779;28;1189;-48
2022/01/25 00:59:11;;;;;;;;;;;;;;;26.46;26.65;98848.31;170436;29;1013;-48
2022/01/25 00:59:18;;;;;;;;;;;;;;;26.43;26.77;98849.38;170573;29;1099;-47
2022/01/25 00:59:24;;;;;;;;;;;;;;;26.42;27.04;98851.16;171157;28;890;-49
2022/01/25 00:59:30;;;;;;;;;;;;;;;26.41;27.02;98848.63;171414;28;1202;-47
2022/01/25 00:59:35;;;;;;;;;;;;;;;26.41;26.95;98852.13;171841;28;913;-48
2022/01/25 00:59:40;;;;;;;;;;;;;;;26.40;26.95;98855.72;170752;28;1210;-48
2022/01/25 00:59:47;;;;;;;;;;;;;;;26.36;26.62;98848.88;170499;29;882;-48
2022/01/25 00:59:52;;;;;;;;;;;;;;;26.46;26.98;98848.31;170647;28;1213;-48
2022/01/25 00:59:58;;;;;;;;;;;;;;;26.43;26.67;98847.56;170859;28;858;-48
2022/01/25 01:00:04;;;;;;;;;;;;;;;26.43;26.71;98847.56;170366;29;1126;-47
2022/01/25 01:00:10;;;;;;;;;;;;;;;26.44;26.91;98846.63;170428;29;863;-49
2022/01/25 01:00:15;;;;;;;;;;;;;;;26.47;26.70;98852.69;169742;29;1116;-48
2022/01/25 01:00:20;;;;;;;;;;;;;;;26.47;26.72;98855.34;169591;29;1909;-48
2022/01/25 01:00:26;;;;;;;;;;;;;;;26.48;26.91;98849.94;170208;29;898;-48
2022/01/25 01:00:31;;;;;;;;;;;;;;;26.48;26.86;98854.41;170311;29;1394;-49
2022/01/25 01:00:36;;;;;;;;;;;;;;;26.49;26.97;98862.22;170054;29;1874;-47
2022/01/25 01:00:41;;;;;;;;;;;;;;;26.48;26.88;98854.41;170300;29;995;-48
2022/01/25 01:00:46;;;;;;;;;;;;;;;26.46;26.96;98856.25;170520;29;779;-47
2022/01/25 01:00:52;;;;;;;;;;;;;;;26.42;26.97;98851.16;169951;28;1290;-48
2022/01/25 01:00:57;;;;;;;;;;;;;;;26.40;26.96;98847.78;170775;28;1015;-48
2022/01/25 01:01:02;;;;;;;;;;;;;;;26.44;26.98;98854.56;170266;29;1083;-48
2022/01/25 01:01:07;;;;;;;;;;;;;;;26.42;26.78;98847.69;170408;29;1013;-47
2022/01/25 01:01:12;;;;;;;;;;;;;;;26.44;27.07;98851.91;170332;29;1910;-48
2022/01/25 01:01:18;;;;;;;;;;;;;;;26.42;27.05;98851.16;170747;28;1151;-48
2022/01/25 01:01:23;;;;;;;;;;;;;;;26.44;26.90;98853.72;170339;28;818;-48
2022/01/25 01:01:28;;;;;;;;;;;;;;;26.46;27.03;98856.25;170399;29;1198;-48
2022/01/25 01:01:34;;;;;;;;;;;;;;;26.47;26.83;98855.34;170500;29;810;-47
2022/01/25 01:01:39;;;;;;;;;;;;;;;26.47;26.74;98847.41;170628;28;1142;-47
2022/01/25 01:01:44;;;;;;;;;;;;;;;26.48;26.54;98849.94;171454;28;751;-48
2022/01/25 01:01:50;;;;;;;;;;;;;;;26.46;27.00;98853.63;170530;28;4304;-47
2022/01/25 01:02:00;;;;;;;;;;;;;;;26.48;26.98;98851.75;170421;29;889;-48
2022/01/25 01:02:08;;;;;;;;;;;;;;;26.48;26.85;98854.41;170451;29;826;-48
2022/01/25 01:02:14;;;;;;;;;;;;;;;26.44;26.98;98849.28;170532;28;1175;-48
2022/01/25 01:02:19;;;;;;;;;;;;;;;26.45;26.94;98847.47;169903;29;818;-48
2022/01/25 01:02:24;;;;;;;;;;;;;;;26.45;27.10;98850.13;169664;29;1179;-47
2022/01/25 01:02:29;;;;;;;;;;;;;;;26.47;26.77;98860.63;169806;29;794;-48
2022/01/25 01:02:34;;;;;;;;;;;;;;;26.47;27.02;98847.41;169802;29;930;-49
2022/01/25 01:02:40;;;;;;;;;;;;;;;26.48;26.60;98851.75;169720;29;1111;-47
2022/01/25 01:02:45;;;;;;;;;;;;;;;26.47;26.78;98855.34;169805;29;1019;-46
2022/01/25 01:02:50;;;;;;;;;;;;;;;26.47;26.70;98850.91;169629;29;1175;-47
2022/01/25 01:02:55;;;;;;;;;;;;;;;26.49;26.92;98850.81;169746;29;1127;-47
2022/01/25 01:03:00;;;;;;;;;;;;;;;26.46;26.96;98857.09;169665;29;1111;-48
2022/01/25 01:03:06;;;;;;;;;;;;;;;26.47;26.91;98852.69;169861;29;914;-47
2022/01/25 01:03:11;;;;;;;;;;;;;;;26.48;26.76;98854.41;169767;29;839;-47
2022/01/25 01:03:16;;;;;;;;;;;;;;;26.48;26.98;98851.75;169903;29;1060;-48
2022/01/25 01:03:21;;;;;;;;;;;;;;;26.49;26.66;98856.09;169765;29;883;-47
2022/01/25 01:03:26;;;;;;;;;;;;;;;26.48;26.92;98851.75;170488;29;1197;-48
2022/01/25 01:03:32;;;;;;;;;;;;;;;26.46;26.97;98856.25;170569;29;787;-48
2022/01/25 01:03:37;;;;;;;;;;;;;;;26.47;26.89;98858.00;170670;28;1091;-48
2022/01/25 01:03:42;;;;;;;;;;;;;;;26.43;27.09;98847.56;170277;28;1603;-48
2022/01/25 01:03:47;;;;;;;;;;;;;;;26.45;26.93;98852.75;170511;28;1650;-48
2022/01/25 01:03:52;;;;;;;;;;;;;;;26.47;26.97;98848.25;171164;28;1031;-48
2022/01/25 01:03:58;;;;;;;;;;;;;;;26.47;26.95;98848.25;171933;28;810;-49